ADDS METAR Data INFO
IDs: Format: Raw Decoded Include TAF

Data at: 0213 UTC 19 Jul 2018

KGKY 190153Z AUTO 13007KT 10SM CLR 36/17 A2984 RMK AO2 SLP094 T03610172 $
KGKY 190053Z 15009KT 10SM CLR 39/17 A2983 RMK AO2 SLP089 T03890167 $
KGKY 182353Z 15008KT 10SM CLR 41/16 A2983 RMK AO2 SLP088 T04060156 10417 20372 56017 $
KGKY 182253Z VRB03KT 10SM CLR 41/15 A2984 RMK AO2 SLP091 T04110150 $
KGKY 182153Z VRB05KT 10SM CLR 41/16 A2986 RMK AO2 SLP098 T04060156 $
KGKY 182053Z 16008G14KT 10SM CLR 41/16 A2988 RMK AO2 SLP105 T04060156 56021 $
KGKY 181953Z 18008KT 10SM CLR 41/17 A2990 RMK AO2 SLP111 T04060167
KGKY 181853Z VRB04KT 10SM CLR 39/19 A2992 RMK AO2 SLP119 T03890194
KGKY 181753Z 00000KT 10SM CLR 37/20 A2994 RMK AO2 SLP127 T03720200 10383 20272 58011
KGKY 181653Z 21007KT 10SM CLR 36/20 A2996 RMK AO2 SLP132 T03610200
KGKY 181553Z 22008KT 10SM CLR 34/21 A2997 RMK AO2 SLP135 T03440211
KGKY 181453Z 20010KT 10SM CLR 32/21 A2997 RMK AO2 SLP139 T03170211 50001
KGKY 181353Z 19006KT 10SM CLR 29/22 A2998 RMK AO2 SLP141 T02890217
KGKY 181253Z 19006KT 10SM CLR 27/21 A2998 RMK AO2 SLP141 T02720211
KGKY 181219Z 18006KT 8SM FEW003 27/21 A2998 RMK AO2 T02720211
KGKY 181153Z 18005KT 10SM CLR 27/21 A2997 RMK AO2 SLP137 T02720211 10311 20272 53007
KGKY 181053Z AUTO 18006KT 10SM CLR 28/21 A2996 RMK AO2 SLP132 T02780206
KGKY 180953Z AUTO 19006KT 10SM CLR 28/21 A2994 RMK AO2 SLP128 T02830211
KGKY 180853Z AUTO 19005KT 10SM CLR 29/21 A2995 RMK AO2 SLP130 T02890211 55001
KGKY 180753Z AUTO 18008KT 10SM CLR 29/21 A2994 RMK AO2 SLP128 T02940206
KGKY 180653Z AUTO 17007KT 10SM CLR 30/19 A2995 RMK AO2 SLP131 T03000194
KGKY 180553Z AUTO 18007KT 10SM CLR 31/17 A2995 RMK AO2 SLP131 T03110172 10394 20311 404060250 50007
KGKY 180453Z AUTO 16008KT 10SM CLR 32/16 A2996 RMK AO2 SLP133 T03170156
KGKY 180353Z AUTO 17010KT 10SM CLR 33/14 A2995 RMK AO2 SLP131 T03330139
KGKY 180253Z AUTO 16007KT 10SM CLR 34/13 A2993 RMK AO2 SLP125 T03390128 53007
KGKY 180153Z AUTO 16005KT 10SM CLR 35/14 A2992 RMK AO2 SLP120 T03500139
KGKY 180053Z 18005KT 10SM CLR 38/13 A2992 RMK AO2 SLP120 T03830133
KGKY 172353Z 16007KT 10SM CLR 39/13 A2991 RMK AO2 SLP118 T03940133 10406 20367 56015
KGKY 172253Z 26003KT 10SM CLR 39/14 A2993 RMK AO2 SLP123 T03940144
KGKY 172153Z 14010KT 10SM FEW100 40/14 A2994 RMK AO2 SLP125 T04000144
KGKY 172053Z 18008KT 10SM FEW100 39/16 A2996 RMK AO2 SLP132 T03940161 56023
KGKY 171953Z 20007KT 170V230 10SM CLR 39/15 A2998 RMK AO2 SLP139 T03940150
KGKY 171853Z VRB04KT 10SM CLR 38/18 A3000 RMK AO2 SLP147 T03830183
KGKY 171753Z 22006KT 10SM CLR 37/19 A3003 RMK AO2 SLP156 T03720194 10372 20256 58006
KGKY 171653Z VRB04KT 10SM CLR 35/21 A3004 RMK AO2 SLP161 T03500206
KGKY 171553Z 22008KT 10SM CLR 34/21 A3004 RMK AO2 SLP163 T03390211
KGKY 171453Z VRB05KT 10SM CLR 31/22 A3005 RMK AO2 SLP163 T03110217 51008